Wailuku, HI (96793)

10:24 AM HST die 26o January, anno 2015 (GMT -1000)
Kehalani | Change Station
CLOSE
Current Station
Personal Weather Stations
Location: Wailuku, HI
Elevation: 358 ft
Nearby Weather Stations

Elev 358 ft 20.87 °N, 156.50 °W | Updated 4 minutes ago

Scattered Clouds
Nubes Dispersae
76.5 °F
Feels Like 78 °F
N
8.3
Ventus Variabilis Ventus from Inter Aquilonem et Eurum

Hodie
High -- | Low -- °F
--% Chance of Precip.
Yesterday
High -- | Low -- °F
Precip. -- in
7:04 AM 6:13 PM
Waxing Crescent, 46% visible
Pressio 30.02 in
Visibilitas 10.0 milia passuum
Clouds Nubes Dispersae 3500 ft
Index Caloris 78 °F
Frigus in quo Ros apparet 62 °F
Umor 62%
Rainfall 0.00 in
Snow Depth Not available.
UV 3 out of 12
Pollen Not available.
Air Quality Not available.
Flu Activity Not available.
METAR PHOG 261954Z 06009KT 10SM SCT035 24/16 A3000 RMK AO2 SLP164 T02390161

More Conditions Fewer Conditions

Pressio 30.02 in
Visibilitas 10.0 milia passuum
Clouds Nubes Dispersae 3500 ft
Index Caloris 78 °F
Frigus in quo Ros apparet 62 °F
Umor 62%
Rainfall 0.00 in
Snow Depth Not available.
UV 3 out of 12
Pollen Not available.
Air Quality Not available.
Flu Activity Not available.
METAR PHOG 261954Z 06009KT 10SM SCT035 24/16 A3000 RMK AO2 SLP164 T02390161

More Conditions Fewer Conditions

10-Day Weather Forecast

Almanac

Astronomy

Jan. 26, 2015 Rise Set
Actual Time
Civil Twilight
Nautical Twilight
Astronomical Twilight
Moon
Length Of Visible Light
Length of Day
Tomorrow will be .
, % of the Moon is Illuminated

Today's Extremes

State Highs State Lows

Community

WunderPhotos

Upload Photos

1,790,350 photos uploaded!

WunderBlogs® & News

Nearby

Air Quality

  Air Quality AQ Index Pollutant
Not available.

Snow Depth

Station Depth Elevation

Earthquake Activity

City Distance Mag. Time & Date
Minimum magnitude displayed is 2.5.

Coastal Water Temperatures

Locus Calor

Nearby Weather Stations